sensor_id;sensor_type;location;lat;lon;timestamp;P1;durP1;ratioP1;P2;durP2;ratioP2
55212;SDS011;41083;52.932;6.674;2023-04-29T00:00:41;18.85;;;7.88;;
55212;SDS011;41083;52.932;6.674;2023-04-29T00:03:07;17.75;;;7.70;;
55212;SDS011;41083;52.932;6.674;2023-04-29T00:05:33;17.65;;;7.65;;
55212;SDS011;41083;52.932;6.674;2023-04-29T00:07:58;19.90;;;9.00;;
55212;SDS011;41083;52.932;6.674;2023-04-29T00:10:24;20.95;;;8.25;;
55212;SDS011;41083;52.932;6.674;2023-04-29T00:12:49;20.98;;;8.40;;
55212;SDS011;41083;52.932;6.674;2023-04-29T00:15:15;24.73;;;8.65;;
55212;SDS011;41083;52.932;6.674;2023-04-29T00:17:41;18.33;;;8.13;;
55212;SDS011;41083;52.932;6.674;2023-04-29T00:20:07;19.15;;;9.02;;
55212;SDS011;41083;52.932;6.674;2023-04-29T00:22:34;18.83;;;7.93;;
55212;SDS011;41083;52.932;6.674;2023-04-29T00:25:00;20.17;;;8.57;;
55212;SDS011;41083;52.932;6.674;2023-04-29T00:27:25;18.95;;;8.05;;
55212;SDS011;41083;52.932;6.674;2023-04-29T00:29:51;18.73;;;7.97;;
55212;SDS011;41083;52.932;6.674;2023-04-29T00:32:17;20.42;;;8.27;;
55212;SDS011;41083;52.932;6.674;2023-04-29T00:34:43;16.52;;;7.45;;
55212;SDS011;41083;52.932;6.674;2023-04-29T00:37:08;21.23;;;7.47;;
55212;SDS011;41083;52.932;6.674;2023-04-29T00:39:34;15.25;;;6.95;;
55212;SDS011;41083;52.932;6.674;2023-04-29T00:42:00;18.00;;;8.63;;
55212;SDS011;41083;52.932;6.674;2023-04-29T00:44:27;17.02;;;7.78;;
55212;SDS011;41083;52.932;6.674;2023-04-29T00:46:53;19.05;;;7.63;;
55212;SDS011;41083;52.932;6.674;2023-04-29T00:49:18;18.65;;;7.50;;
55212;SDS011;41083;52.932;6.674;2023-04-29T00:51:44;19.30;;;7.70;;
55212;SDS011;41083;52.932;6.674;2023-04-29T00:54:10;19.30;;;7.60;;
55212;SDS011;41083;52.932;6.674;2023-04-29T00:56:36;18.05;;;7.32;;
55212;SDS011;41083;52.932;6.674;2023-04-29T00:59:06;16.98;;;7.50;;
55212;SDS011;41083;52.932;6.674;2023-04-29T01:01:33;20.75;;;7.95;;
55212;SDS011;41083;52.932;6.674;2023-04-29T01:03:59;21.10;;;8.07;;
55212;SDS011;41083;52.932;6.674;2023-04-29T01:06:34;17.33;;;7.82;;
55212;SDS011;41083;52.932;6.674;2023-04-29T01:12:49;14.43;;;6.60;;
55212;SDS011;41083;52.932;6.674;2023-04-29T01:17:43;19.02;;;7.20;;
55212;SDS011;41083;52.932;6.674;2023-04-29T01:20:19;19.25;;;7.13;;
55212;SDS011;41083;52.932;6.674;2023-04-29T01:22:47;25.55;;;7.53;;
55212;SDS011;41083;52.932;6.674;2023-04-29T01:25:13;16.77;;;6.55;;
55212;SDS011;41083;52.932;6.674;2023-04-29T01:32:59;19.08;;;7.50;;
55212;SDS011;41083;52.932;6.674;2023-04-29T01:43:35;18.20;;;8.18;;
55212;SDS011;41083;52.932;6.674;2023-04-29T01:46:03;19.38;;;7.45;;
55212;SDS011;41083;52.932;6.674;2023-04-29T01:48:33;20.65;;;9.10;;
55212;SDS011;41083;52.932;6.674;2023-04-29T01:50:59;20.45;;;7.28;;
55212;SDS011;41083;52.932;6.674;2023-04-29T01:53:25;16.65;;;7.35;;
55212;SDS011;41083;52.932;6.674;2023-04-29T01:55:51;16.40;;;7.35;;
55212;SDS011;41083;52.932;6.674;2023-04-29T01:58:16;18.88;;;7.97;;
55212;SDS011;41083;52.932;6.674;2023-04-29T02:00:42;19.73;;;7.53;;
55212;SDS011;41083;52.932;6.674;2023-04-29T02:03:08;24.42;;;7.05;;
55212;SDS011;41083;52.932;6.674;2023-04-29T02:05:34;14.50;;;6.82;;
55212;SDS011;41083;52.932;6.674;2023-04-29T02:08:00;16.27;;;7.07;;
55212;SDS011;41083;52.932;6.674;2023-04-29T02:10:26;18.95;;;6.95;;
55212;SDS011;41083;52.932;6.674;2023-04-29T02:12:52;15.60;;;5.88;;
55212;SDS011;41083;52.932;6.674;2023-04-29T02:15:18;18.27;;;6.63;;
55212;SDS011;41083;52.932;6.674;2023-04-29T02:17:44;14.82;;;6.22;;
55212;SDS011;41083;52.932;6.674;2023-04-29T02:20:11;18.98;;;6.85;;
55212;SDS011;41083;52.932;6.674;2023-04-29T02:22:36;18.48;;;6.45;;
55212;SDS011;41083;52.932;6.674;2023-04-29T02:25:02;13.88;;;6.15;;
55212;SDS011;41083;52.932;6.674;2023-04-29T02:27:28;10.98;;;5.50;;
55212;SDS011;41083;52.932;6.674;2023-04-29T02:29:53;16.92;;;6.32;;
55212;SDS011;41083;52.932;6.674;2023-04-29T02:32:19;13.52;;;5.40;;
55212;SDS011;41083;52.932;6.674;2023-04-29T02:34:45;17.65;;;6.72;;
55212;SDS011;41083;52.932;6.674;2023-04-29T02:37:11;15.13;;;6.78;;
55212;SDS011;41083;52.932;6.674;2023-04-29T02:39:36;12.68;;;5.43;;
55212;SDS011;41083;52.932;6.674;2023-04-29T02:42:02;17.13;;;5.53;;
55212;SDS011;41083;52.932;6.674;2023-04-29T02:44:28;13.70;;;5.97;;
55212;SDS011;41083;52.932;6.674;2023-04-29T02:46:55;14.55;;;5.90;;
55212;SDS011;41083;52.932;6.674;2023-04-29T02:49:22;12.30;;;6.40;;
55212;SDS011;41083;52.932;6.674;2023-04-29T02:51:47;18.60;;;5.82;;
55212;SDS011;41083;52.932;6.674;2023-04-29T02:54:14;15.95;;;5.43;;
55212;SDS011;41083;52.932;6.674;2023-04-29T02:56:40;17.02;;;6.63;;
55212;SDS011;41083;52.932;6.674;2023-04-29T02:59:06;17.85;;;6.05;;
55212;SDS011;41083;52.932;6.674;2023-04-29T03:01:32;13.32;;;5.82;;
55212;SDS011;41083;52.932;6.674;2023-04-29T03:03:58;11.07;;;5.03;;
55212;SDS011;41083;52.932;6.674;2023-04-29T03:06:23;11.60;;;5.78;;
55212;SDS011;41083;52.932;6.674;2023-04-29T03:08:49;14.52;;;5.20;;
55212;SDS011;41083;52.932;6.674;2023-04-29T03:11:16;17.15;;;5.63;;
55212;SDS011;41083;52.932;6.674;2023-04-29T03:13:42;11.13;;;4.85;;
55212;SDS011;41083;52.932;6.674;2023-04-29T03:16:09;16.52;;;6.03;;
55212;SDS011;41083;52.932;6.674;2023-04-29T03:18:37;12.43;;;5.78;;
55212;SDS011;41083;52.932;6.674;2023-04-29T03:21:03;13.73;;;5.47;;
55212;SDS011;41083;52.932;6.674;2023-04-29T03:23:28;14.35;;;5.22;;
55212;SDS011;41083;52.932;6.674;2023-04-29T03:25:54;13.40;;;5.35;;
55212;SDS011;41083;52.932;6.674;2023-04-29T03:28:20;11.32;;;5.30;;
55212;SDS011;41083;52.932;6.674;2023-04-29T03:30:46;13.82;;;5.53;;
55212;SDS011;41083;52.932;6.674;2023-04-29T03:33:12;12.95;;;5.20;;
55212;SDS011;41083;52.932;6.674;2023-04-29T03:35:37;11.43;;;4.68;;
55212;SDS011;41083;52.932;6.674;2023-04-29T03:38:03;16.05;;;5.40;;
55212;SDS011;41083;52.932;6.674;2023-04-29T03:40:29;17.00;;;5.30;;
55212;SDS011;41083;52.932;6.674;2023-04-29T03:42:55;15.65;;;5.78;;
55212;SDS011;41083;52.932;6.674;2023-04-29T03:45:20;14.52;;;5.80;;
55212;SDS011;41083;52.932;6.674;2023-04-29T03:47:46;16.42;;;5.90;;
55212;SDS011;41083;52.932;6.674;2023-04-29T03:50:11;17.00;;;6.75;;
55212;SDS011;41083;52.932;6.674;2023-04-29T03:52:37;12.93;;;5.25;;
55212;SDS011;41083;52.932;6.674;2023-04-29T03:55:03;13.52;;;5.38;;
55212;SDS011;41083;52.932;6.674;2023-04-29T03:57:29;13.80;;;5.70;;
55212;SDS011;41083;52.932;6.674;2023-04-29T03:59:55;13.25;;;5.50;;
55212;SDS011;41083;52.932;6.674;2023-04-29T04:02:20;13.75;;;5.55;;
55212;SDS011;41083;52.932;6.674;2023-04-29T04:04:46;14.88;;;5.70;;
55212;SDS011;41083;52.932;6.674;2023-04-29T04:07:11;12.40;;;4.88;;
55212;SDS011;41083;52.932;6.674;2023-04-29T04:09:37;15.30;;;5.63;;
55212;SDS011;41083;52.932;6.674;2023-04-29T04:12:02;13.00;;;5.95;;
55212;SDS011;41083;52.932;6.674;2023-04-29T04:14:28;12.73;;;5.22;;
55212;SDS011;41083;52.932;6.674;2023-04-29T04:16:54;15.02;;;6.20;;
55212;SDS011;41083;52.932;6.674;2023-04-29T04:19:20;16.45;;;6.53;;
55212;SDS011;41083;52.932;6.674;2023-04-29T04:21:45;12.38;;;5.60;;
55212;SDS011;41083;52.932;6.674;2023-04-29T04:24:11;14.32;;;6.35;;
55212;SDS011;41083;52.932;6.674;2023-04-29T04:26:36;13.75;;;5.85;;
55212;SDS011;41083;52.932;6.674;2023-04-29T04:29:02;12.52;;;5.65;;
55212;SDS011;41083;52.932;6.674;2023-04-29T04:31:29;14.18;;;5.60;;
55212;SDS011;41083;52.932;6.674;2023-04-29T04:33:54;14.73;;;6.05;;
55212;SDS011;41083;52.932;6.674;2023-04-29T04:36:20;16.00;;;5.97;;
55212;SDS011;41083;52.932;6.674;2023-04-29T04:38:46;13.77;;;4.70;;
55212;SDS011;41083;52.932;6.674;2023-04-29T04:41:11;14.48;;;5.68;;
55212;SDS011;41083;52.932;6.674;2023-04-29T04:43:37;14.88;;;5.45;;
55212;SDS011;41083;52.932;6.674;2023-04-29T04:46:09;11.38;;;5.25;;
55212;SDS011;41083;52.932;6.674;2023-04-29T04:48:35;13.05;;;5.25;;
55212;SDS011;41083;52.932;6.674;2023-04-29T04:51:08;20.65;;;6.13;;
55212;SDS011;41083;52.932;6.674;2023-04-29T04:53:34;13.55;;;4.80;;
55212;SDS011;41083;52.932;6.674;2023-04-29T04:56:00;10.75;;;5.22;;
55212;SDS011;41083;52.932;6.674;2023-04-29T04:58:26;14.90;;;5.10;;
55212;SDS011;41083;52.932;6.674;2023-04-29T05:00:51;16.13;;;5.13;;
55212;SDS011;41083;52.932;6.674;2023-04-29T05:03:17;13.32;;;4.78;;
55212;SDS011;41083;52.932;6.674;2023-04-29T05:05:43;12.25;;;5.60;;
55212;SDS011;41083;52.932;6.674;2023-04-29T05:08:08;12.32;;;5.25;;
55212;SDS011;41083;52.932;6.674;2023-04-29T05:10:37;11.20;;;5.25;;
55212;SDS011;41083;52.932;6.674;2023-04-29T05:13:02;12.55;;;5.43;;
55212;SDS011;41083;52.932;6.674;2023-04-29T05:15:28;13.18;;;5.88;;
55212;SDS011;41083;52.932;6.674;2023-04-29T05:17:54;11.90;;;4.80;;
55212;SDS011;41083;52.932;6.674;2023-04-29T05:20:19;14.43;;;5.10;;
55212;SDS011;41083;52.932;6.674;2023-04-29T05:22:45;14.18;;;4.20;;
55212;SDS011;41083;52.932;6.674;2023-04-29T05:25:11;12.88;;;5.05;;
55212;SDS011;41083;52.932;6.674;2023-04-29T05:27:36;10.45;;;4.32;;
55212;SDS011;41083;52.932;6.674;2023-04-29T05:30:03;9.88;;;3.75;;
55212;SDS011;41083;52.932;6.674;2023-04-29T05:32:29;14.60;;;5.28;;
55212;SDS011;41083;52.932;6.674;2023-04-29T05:34:54;10.23;;;4.22;;
55212;SDS011;41083;52.932;6.674;2023-04-29T05:37:20;10.60;;;4.72;;
55212;SDS011;41083;52.932;6.674;2023-04-29T05:39:46;11.27;;;3.88;;
55212;SDS011;41083;52.932;6.674;2023-04-29T05:42:11;12.60;;;4.55;;
55212;SDS011;41083;52.932;6.674;2023-04-29T05:44:37;10.52;;;4.35;;
55212;SDS011;41083;52.932;6.674;2023-04-29T05:47:03;13.70;;;4.30;;
55212;SDS011;41083;52.932;6.674;2023-04-29T05:49:29;9.98;;;4.50;;
55212;SDS011;41083;52.932;6.674;2023-04-29T05:51:55;12.13;;;4.53;;
55212;SDS011;41083;52.932;6.674;2023-04-29T05:54:20;8.57;;;4.38;;
55212;SDS011;41083;52.932;6.674;2023-04-29T05:56:46;10.32;;;4.35;;
55212;SDS011;41083;52.932;6.674;2023-04-29T05:59:12;10.50;;;4.15;;
55212;SDS011;41083;52.932;6.674;2023-04-29T06:01:37;9.25;;;4.30;;
55212;SDS011;41083;52.932;6.674;2023-04-29T06:04:03;11.68;;;4.50;;
55212;SDS011;41083;52.932;6.674;2023-04-29T06:06:28;10.32;;;4.25;;
55212;SDS011;41083;52.932;6.674;2023-04-29T06:08:54;11.95;;;3.78;;
55212;SDS011;41083;52.932;6.674;2023-04-29T06:11:20;11.20;;;4.65;;
55212;SDS011;41083;52.932;6.674;2023-04-29T06:13:46;7.90;;;3.65;;
55212;SDS011;41083;52.932;6.674;2023-04-29T06:16:11;9.18;;;3.50;;
55212;SDS011;41083;52.932;6.674;2023-04-29T06:18:37;10.02;;;4.22;;
55212;SDS011;41083;52.932;6.674;2023-04-29T06:21:03;9.82;;;3.67;;
55212;SDS011;41083;52.932;6.674;2023-04-29T06:23:29;14.02;;;4.13;;
55212;SDS011;41083;52.932;6.674;2023-04-29T06:25:56;10.60;;;3.92;;
55212;SDS011;41083;52.932;6.674;2023-04-29T06:28:22;8.55;;;3.42;;
55212;SDS011;41083;52.932;6.674;2023-04-29T06:30:47;9.38;;;4.07;;
55212;SDS011;41083;52.932;6.674;2023-04-29T06:33:14;9.30;;;3.50;;
55212;SDS011;41083;52.932;6.674;2023-04-29T06:35:39;7.90;;;3.75;;
55212;SDS011;41083;52.932;6.674;2023-04-29T06:38:05;7.35;;;3.60;;
55212;SDS011;41083;52.932;6.674;2023-04-29T06:40:32;9.25;;;3.90;;
55212;SDS011;41083;52.932;6.674;2023-04-29T06:42:58;8.43;;;3.58;;
55212;SDS011;41083;52.932;6.674;2023-04-29T06:45:24;8.10;;;3.22;;
55212;SDS011;41083;52.932;6.674;2023-04-29T06:47:49;8.07;;;3.47;;
55212;SDS011;41083;52.932;6.674;2023-04-29T06:50:15;10.25;;;3.97;;
55212;SDS011;41083;52.932;6.674;2023-04-29T06:52:41;10.15;;;3.90;;
55212;SDS011;41083;52.932;6.674;2023-04-29T06:55:06;10.00;;;3.22;;
55212;SDS011;41083;52.932;6.674;2023-04-29T06:57:32;8.63;;;3.70;;
55212;SDS011;41083;52.932;6.674;2023-04-29T06:59:58;8.48;;;3.25;;
55212;SDS011;41083;52.932;6.674;2023-04-29T07:02:23;8.23;;;3.63;;
55212;SDS011;41083;52.932;6.674;2023-04-29T07:04:49;6.40;;;3.15;;
55212;SDS011;41083;52.932;6.674;2023-04-29T07:07:15;8.95;;;3.50;;
55212;SDS011;41083;52.932;6.674;2023-04-29T07:09:41;8.68;;;3.58;;
55212;SDS011;41083;52.932;6.674;2023-04-29T07:12:06;9.15;;;4.05;;
55212;SDS011;41083;52.932;6.674;2023-04-29T07:14:32;8.20;;;3.42;;
55212;SDS011;41083;52.932;6.674;2023-04-29T07:16:58;8.57;;;2.83;;
55212;SDS011;41083;52.932;6.674;2023-04-29T07:19:23;9.15;;;3.25;;
55212;SDS011;41083;52.932;6.674;2023-04-29T07:21:49;7.60;;;3.33;;
55212;SDS011;41083;52.932;6.674;2023-04-29T07:24:14;6.40;;;3.08;;
55212;SDS011;41083;52.932;6.674;2023-04-29T07:26:41;7.65;;;3.50;;
55212;SDS011;41083;52.932;6.674;2023-04-29T07:29:09;6.10;;;3.08;;
55212;SDS011;41083;52.932;6.674;2023-04-29T07:31:34;8.75;;;3.83;;
55212;SDS011;41083;52.932;6.674;2023-04-29T07:34:00;8.70;;;3.10;;
55212;SDS011;41083;52.932;6.674;2023-04-29T07:36:26;6.35;;;3.28;;
55212;SDS011;41083;52.932;6.674;2023-04-29T07:38:52;7.30;;;3.35;;
55212;SDS011;41083;52.932;6.674;2023-04-29T07:41:18;6.55;;;3.25;;
55212;SDS011;41083;52.932;6.674;2023-04-29T07:43:44;7.65;;;2.90;;
55212;SDS011;41083;52.932;6.674;2023-04-29T07:46:09;7.07;;;3.00;;
55212;SDS011;41083;52.932;6.674;2023-04-29T07:48:36;6.13;;;2.40;;
55212;SDS011;41083;52.932;6.674;2023-04-29T07:51:03;5.78;;;3.03;;
55212;SDS011;41083;52.932;6.674;2023-04-29T07:53:29;5.68;;;2.85;;
55212;SDS011;41083;52.932;6.674;2023-04-29T07:55:55;4.28;;;2.42;;
55212;SDS011;41083;52.932;6.674;2023-04-29T07:58:20;6.07;;;2.65;;
55212;SDS011;41083;52.932;6.674;2023-04-29T08:00:46;10.13;;;2.92;;
55212;SDS011;41083;52.932;6.674;2023-04-29T08:03:12;12.88;;;3.60;;
55212;SDS011;41083;52.932;6.674;2023-04-29T08:05:37;7.45;;;3.28;;
55212;SDS011;41083;52.932;6.674;2023-04-29T08:08:03;4.82;;;2.50;;
55212;SDS011;41083;52.932;6.674;2023-04-29T08:10:29;5.55;;;2.58;;
55212;SDS011;41083;52.932;6.674;2023-04-29T08:12:55;6.13;;;3.22;;
55212;SDS011;41083;52.932;6.674;2023-04-29T08:15:21;8.63;;;3.20;;
55212;SDS011;41083;52.932;6.674;2023-04-29T08:17:47;5.68;;;2.90;;
55212;SDS011;41083;52.932;6.674;2023-04-29T08:20:13;8.02;;;3.05;;
55212;SDS011;41083;52.932;6.674;2023-04-29T08:22:39;8.10;;;2.90;;
55212;SDS011;41083;52.932;6.674;2023-04-29T08:25:05;6.47;;;2.80;;
55212;SDS011;41083;52.932;6.674;2023-04-29T08:27:32;6.68;;;3.00;;
55212;SDS011;41083;52.932;6.674;2023-04-29T08:29:57;7.30;;;3.05;;
55212;SDS011;41083;52.932;6.674;2023-04-29T08:32:23;6.65;;;3.33;;
55212;SDS011;41083;52.932;6.674;2023-04-29T08:34:49;8.23;;;3.08;;
55212;SDS011;41083;52.932;6.674;2023-04-29T08:37:14;9.27;;;3.90;;
55212;SDS011;41083;52.932;6.674;2023-04-29T08:39:40;6.97;;;3.05;;
55212;SDS011;41083;52.932;6.674;2023-04-29T08:42:10;8.32;;;3.28;;
55212;SDS011;41083;52.932;6.674;2023-04-29T08:44:36;7.28;;;3.38;;
55212;SDS011;41083;52.932;6.674;2023-04-29T08:47:04;5.80;;;2.83;;
55212;SDS011;41083;52.932;6.674;2023-04-29T08:49:31;6.55;;;2.97;;
55212;SDS011;41083;52.932;6.674;2023-04-29T08:51:58;6.82;;;3.03;;
55212;SDS011;41083;52.932;6.674;2023-04-29T08:54:23;8.68;;;3.17;;
55212;SDS011;41083;52.932;6.674;2023-04-29T08:56:49;6.55;;;3.22;;
55212;SDS011;41083;52.932;6.674;2023-04-29T08:59:16;5.57;;;2.67;;
55212;SDS011;41083;52.932;6.674;2023-04-29T09:01:42;5.53;;;2.53;;
55212;SDS011;41083;52.932;6.674;2023-04-29T09:06:45;7.25;;;2.83;;
55212;SDS011;41083;52.932;6.674;2023-04-29T09:09:12;8.07;;;2.90;;
55212;SDS011;41083;52.932;6.674;2023-04-29T09:11:39;5.72;;;2.72;;
55212;SDS011;41083;52.932;6.674;2023-04-29T09:14:05;6.95;;;3.33;;
55212;SDS011;41083;52.932;6.674;2023-04-29T09:16:32;8.48;;;2.97;;
55212;SDS011;41083;52.932;6.674;2023-04-29T09:18:59;7.45;;;2.72;;
55212;SDS011;41083;52.932;6.674;2023-04-29T09:21:26;5.70;;;2.60;;
55212;SDS011;41083;52.932;6.674;2023-04-29T09:23:56;6.28;;;2.60;;
55212;SDS011;41083;52.932;6.674;2023-04-29T09:26:23;5.05;;;2.70;;
55212;SDS011;41083;52.932;6.674;2023-04-29T09:29:05;5.63;;;2.42;;
55212;SDS011;41083;52.932;6.674;2023-04-29T09:31:33;5.10;;;2.55;;
55212;SDS011;41083;52.932;6.674;2023-04-29T09:33:59;5.90;;;2.83;;
55212;SDS011;41083;52.932;6.674;2023-04-29T09:36:38;5.03;;;2.30;;
55212;SDS011;41083;52.932;6.674;2023-04-29T09:39:09;8.77;;;3.13;;
55212;SDS011;41083;52.932;6.674;2023-04-29T09:41:41;8.27;;;3.15;;
55212;SDS011;41083;52.932;6.674;2023-04-29T09:44:16;5.78;;;2.65;;
55212;SDS011;41083;52.932;6.674;2023-04-29T09:46:43;5.15;;;2.17;;
55212;SDS011;41083;52.932;6.674;2023-04-29T09:49:25;4.90;;;2.42;;
55212;SDS011;41083;52.932;6.674;2023-04-29T09:51:56;5.22;;;2.70;;
55212;SDS011;41083;52.932;6.674;2023-04-29T09:54:23;5.88;;;2.70;;
55212;SDS011;41083;52.932;6.674;2023-04-29T09:56:53;6.60;;;2.80;;
55212;SDS011;41083;52.932;6.674;2023-04-29T09:59:20;5.55;;;2.92;;
55212;SDS011;41083;52.932;6.674;2023-04-29T10:01:47;6.28;;;2.78;;
55212;SDS011;41083;52.932;6.674;2023-04-29T10:04:14;7.95;;;2.60;;
55212;SDS011;41083;52.932;6.674;2023-04-29T10:06:41;4.70;;;2.38;;
55212;SDS011;41083;52.932;6.674;2023-04-29T10:09:10;6.75;;;3.00;;
55212;SDS011;41083;52.932;6.674;2023-04-29T10:11:41;4.95;;;2.33;;
55212;SDS011;41083;52.932;6.674;2023-04-29T10:14:12;7.93;;;2.88;;
55212;SDS011;41083;52.932;6.674;2023-04-29T10:16:44;8.48;;;2.63;;
55212;SDS011;41083;52.932;6.674;2023-04-29T10:19:14;6.78;;;2.55;;
55212;SDS011;41083;52.932;6.674;2023-04-29T10:21:57;7.28;;;3.28;;
55212;SDS011;41083;52.932;6.674;2023-04-29T10:24:29;6.13;;;2.30;;
55212;SDS011;41083;52.932;6.674;2023-04-29T10:26:56;8.23;;;3.55;;
55212;SDS011;41083;52.932;6.674;2023-04-29T10:29:23;4.93;;;1.98;;
55212;SDS011;41083;52.932;6.674;2023-04-29T10:31:51;7.03;;;2.55;;
55212;SDS011;41083;52.932;6.674;2023-04-29T10:34:18;6.28;;;2.30;;
55212;SDS011;41083;52.932;6.674;2023-04-29T10:36:44;5.93;;;2.60;;
55212;SDS011;41083;52.932;6.674;2023-04-29T10:39:13;6.22;;;2.70;;
55212;SDS011;41083;52.932;6.674;2023-04-29T10:41:45;5.40;;;2.63;;
55212;SDS011;41083;52.932;6.674;2023-04-29T10:44:11;6.95;;;2.42;;
55212;SDS011;41083;52.932;6.674;2023-04-29T10:46:38;5.68;;;2.03;;
55212;SDS011;41083;52.932;6.674;2023-04-29T10:49:03;4.05;;;1.75;;
55212;SDS011;41083;52.932;6.674;2023-04-29T10:51:44;3.65;;;2.10;;
55212;SDS011;41083;52.932;6.674;2023-04-29T10:54:13;4.15;;;2.47;;
55212;SDS011;41083;52.932;6.674;2023-04-29T10:56:47;5.70;;;2.38;;
55212;SDS011;41083;52.932;6.674;2023-04-29T11:01:52;5.80;;;2.20;;
55212;SDS011;41083;52.932;6.674;2023-04-29T11:04:19;5.57;;;2.33;;
55212;SDS011;41083;52.932;6.674;2023-04-29T11:06:52;4.25;;;2.20;;
55212;SDS011;41083;52.932;6.674;2023-04-29T11:11:55;5.00;;;1.85;;
55212;SDS011;41083;52.932;6.674;2023-04-29T11:17:07;4.28;;;2.10;;
55212;SDS011;41083;52.932;6.674;2023-04-29T11:19:48;4.53;;;2.00;;
55212;SDS011;41083;52.932;6.674;2023-04-29T11:24:48;4.05;;;1.80;;
55212;SDS011;41083;52.932;6.674;2023-04-29T11:27:37;5.60;;;1.65;;
55212;SDS011;41083;52.932;6.674;2023-04-29T11:30:04;4.32;;;2.03;;
55212;SDS011;41083;52.932;6.674;2023-04-29T11:32:39;4.40;;;1.83;;
55212;SDS011;41083;52.932;6.674;2023-04-29T11:35:07;4.80;;;2.10;;
55212;SDS011;41083;52.932;6.674;2023-04-29T11:37:34;4.53;;;2.00;;
55212;SDS011;41083;52.932;6.674;2023-04-29T11:39:59;6.20;;;2.25;;
55212;SDS011;41083;52.932;6.674;2023-04-29T11:42:25;5.03;;;1.95;;
55212;SDS011;41083;52.932;6.674;2023-04-29T11:44:52;6.15;;;2.22;;
55212;SDS011;41083;52.932;6.674;2023-04-29T11:47:21;5.45;;;2.03;;
55212;SDS011;41083;52.932;6.674;2023-04-29T11:49:50;3.47;;;1.63;;
55212;SDS011;41083;52.932;6.674;2023-04-29T11:52:16;6.10;;;1.58;;
55212;SDS011;41083;52.932;6.674;2023-04-29T11:54:41;6.95;;;2.22;;
55212;SDS011;41083;52.932;6.674;2023-04-29T11:57:08;7.60;;;1.70;;
55212;SDS011;41083;52.932;6.674;2023-04-29T11:59:35;4.88;;;1.92;;
55212;SDS011;41083;52.932;6.674;2023-04-29T12:02:00;4.45;;;2.17;;
55212;SDS011;41083;52.932;6.674;2023-04-29T12:04:26;5.88;;;2.05;;
55212;SDS011;41083;52.932;6.674;2023-04-29T12:06:51;6.05;;;3.08;;
55212;SDS011;41083;52.932;6.674;2023-04-29T12:09:17;3.38;;;1.88;;
55212;SDS011;41083;52.932;6.674;2023-04-29T12:11:43;4.68;;;1.98;;
55212;SDS011;41083;52.932;6.674;2023-04-29T12:14:11;3.90;;;1.73;;
55212;SDS011;41083;52.932;6.674;2023-04-29T12:16:38;5.80;;;2.15;;
55212;SDS011;41083;52.932;6.674;2023-04-29T12:19:04;3.78;;;1.83;;
55212;SDS011;41083;52.932;6.674;2023-04-29T12:21:30;7.35;;;2.22;;
55212;SDS011;41083;52.932;6.674;2023-04-29T12:23:58;3.90;;;1.60;;
55212;SDS011;41083;52.932;6.674;2023-04-29T12:26:29;5.55;;;2.10;;
55212;SDS011;41083;52.932;6.674;2023-04-29T12:28:56;3.78;;;1.52;;
55212;SDS011;41083;52.932;6.674;2023-04-29T12:31:32;4.15;;;1.73;;
55212;SDS011;41083;52.932;6.674;2023-04-29T12:34:02;4.05;;;1.88;;
55212;SDS011;41083;52.932;6.674;2023-04-29T12:36:28;4.28;;;1.45;;
55212;SDS011;41083;52.932;6.674;2023-04-29T12:38:54;4.43;;;1.48;;
55212;SDS011;41083;52.932;6.674;2023-04-29T12:41:34;3.28;;;1.40;;
55212;SDS011;41083;52.932;6.674;2023-04-29T12:44:03;3.15;;;1.70;;
55212;SDS011;41083;52.932;6.674;2023-04-29T12:46:33;4.00;;;1.52;;
55212;SDS011;41083;52.932;6.674;2023-04-29T12:49:03;4.00;;;1.40;;
55212;SDS011;41083;52.932;6.674;2023-04-29T12:51:30;2.78;;;1.35;;
55212;SDS011;41083;52.932;6.674;2023-04-29T12:54:00;2.60;;;1.10;;
55212;SDS011;41083;52.932;6.674;2023-04-29T12:56:27;3.25;;;1.20;;
55212;SDS011;41083;52.932;6.674;2023-04-29T12:58:53;4.28;;;1.27;;
55212;SDS011;41083;52.932;6.674;2023-04-29T13:01:19;4.20;;;1.38;;
55212;SDS011;41083;52.932;6.674;2023-04-29T13:03:45;2.45;;;1.48;;
55212;SDS011;41083;52.932;6.674;2023-04-29T13:06:10;2.15;;;1.30;;
55212;SDS011;41083;52.932;6.674;2023-04-29T13:08:36;4.70;;;1.27;;
55212;SDS011;41083;52.932;6.674;2023-04-29T13:11:02;2.90;;;1.30;;
55212;SDS011;41083;52.932;6.674;2023-04-29T13:13:27;4.00;;;1.88;;
55212;SDS011;41083;52.932;6.674;2023-04-29T13:15:53;4.28;;;1.40;;
55212;SDS011;41083;52.932;6.674;2023-04-29T13:18:18;5.15;;;2.47;;
55212;SDS011;41083;52.932;6.674;2023-04-29T13:20:44;4.53;;;1.58;;
55212;SDS011;41083;52.932;6.674;2023-04-29T13:23:09;3.10;;;1.58;;
55212;SDS011;41083;52.932;6.674;2023-04-29T13:25:38;2.55;;;1.40;;
55212;SDS011;41083;52.932;6.674;2023-04-29T13:28:03;2.95;;;1.17;;
55212;SDS011;41083;52.932;6.674;2023-04-29T13:30:29;3.33;;;1.27;;
55212;SDS011;41083;52.932;6.674;2023-04-29T13:32:55;1.65;;;0.85;;
55212;SDS011;41083;52.932;6.674;2023-04-29T13:35:20;2.03;;;0.90;;
55212;SDS011;41083;52.932;6.674;2023-04-29T13:37:46;1.50;;;0.63;;
55212;SDS011;41083;52.932;6.674;2023-04-29T13:40:12;1.75;;;0.90;;
55212;SDS011;41083;52.932;6.674;2023-04-29T13:42:38;2.33;;;0.95;;
55212;SDS011;41083;52.932;6.674;2023-04-29T13:45:03;2.22;;;0.90;;
55212;SDS011;41083;52.932;6.674;2023-04-29T13:47:29;1.73;;;0.90;;
55212;SDS011;41083;52.932;6.674;2023-04-29T13:49:55;1.48;;;0.80;;
55212;SDS011;41083;52.932;6.674;2023-04-29T13:52:21;3.63;;;0.85;;
55212;SDS011;41083;52.932;6.674;2023-04-29T13:54:47;2.38;;;0.80;;
55212;SDS011;41083;52.932;6.674;2023-04-29T13:57:12;3.90;;;0.88;;
55212;SDS011;41083;52.932;6.674;2023-04-29T13:59:38;1.65;;;0.90;;
55212;SDS011;41083;52.932;6.674;2023-04-29T14:02:03;1.58;;;0.68;;
55212;SDS011;41083;52.932;6.674;2023-04-29T14:04:29;1.20;;;0.70;;
55212;SDS011;41083;52.932;6.674;2023-04-29T14:06:55;2.35;;;0.73;;
55212;SDS011;41083;52.932;6.674;2023-04-29T14:09:21;1.75;;;0.75;;
55212;SDS011;41083;52.932;6.674;2023-04-29T14:11:48;1.73;;;0.77;;
55212;SDS011;41083;52.932;6.674;2023-04-29T14:14:14;1.52;;;0.77;;
55212;SDS011;41083;52.932;6.674;2023-04-29T14:16:41;1.30;;;0.68;;
55212;SDS011;41083;52.932;6.674;2023-04-29T14:19:07;1.88;;;0.85;;
55212;SDS011;41083;52.932;6.674;2023-04-29T14:21:33;1.67;;;0.88;;
55212;SDS011;41083;52.932;6.674;2023-04-29T14:23:59;1.38;;;0.63;;
55212;SDS011;41083;52.932;6.674;2023-04-29T14:26:26;2.00;;;0.88;;
55212;SDS011;41083;52.932;6.674;2023-04-29T14:28:52;1.98;;;0.70;;
55212;SDS011;41083;52.932;6.674;2023-04-29T14:31:22;3.05;;;0.77;;
55212;SDS011;41083;52.932;6.674;2023-04-29T14:33:49;2.72;;;0.85;;
55212;SDS011;41083;52.932;6.674;2023-04-29T14:36:15;1.95;;;0.65;;
55212;SDS011;41083;52.932;6.674;2023-04-29T14:38:41;2.17;;;0.80;;
55212;SDS011;41083;52.932;6.674;2023-04-29T14:41:06;2.40;;;1.25;;
55212;SDS011;41083;52.932;6.674;2023-04-29T14:43:32;2.83;;;1.20;;
55212;SDS011;41083;52.932;6.674;2023-04-29T14:45:59;3.30;;;1.33;;
55212;SDS011;41083;52.932;6.674;2023-04-29T14:48:24;4.07;;;1.30;;
55212;SDS011;41083;52.932;6.674;2023-04-29T14:50:50;3.20;;;1.50;;
55212;SDS011;41083;52.932;6.674;2023-04-29T14:53:16;3.30;;;1.17;;
55212;SDS011;41083;52.932;6.674;2023-04-29T14:55:42;3.05;;;1.63;;
55212;SDS011;41083;52.932;6.674;2023-04-29T14:58:07;4.95;;;1.73;;
55212;SDS011;41083;52.932;6.674;2023-04-29T15:00:34;5.50;;;1.98;;
55212;SDS011;41083;52.932;6.674;2023-04-29T15:03:00;5.60;;;1.90;;
55212;SDS011;41083;52.932;6.674;2023-04-29T15:05:26;4.88;;;2.03;;
55212;SDS011;41083;52.932;6.674;2023-04-29T15:07:51;4.25;;;1.80;;
55212;SDS011;41083;52.932;6.674;2023-04-29T15:10:17;4.15;;;1.60;;
55212;SDS011;41083;52.932;6.674;2023-04-29T15:12:43;4.00;;;2.13;;